Time;durP1;ratioP1;P1;durP2;ratioP2;P2;SDS_P1;SDS_P2;PMS_P1;PMS_P2;Temp;Humidity;BMP_temperature;BMP_pressure;BME280_temperature;BME280_humidity;BME280_pressure;Samples;Min_cycle;Max_cycle;Signal;HPM_P1;HPM_P2
2023/10/16 00:02:13;;;;;;;9.23;9.03;;;3.90;99.90;;;;;;5080302;28;20521;-68
2023/10/16 00:04:43;;;;;;;9.10;8.93;;;3.90;99.90;;;;;;5079185;28;20938;-66
2023/10/16 00:07:13;;;;;;;8.80;8.70;;;4.00;99.90;;;;;;5078594;28;20554;-68
2023/10/16 00:09:40;;;;;;;8.93;8.83;;;3.90;99.90;;;;;;5072311;28;20491;-68
2023/10/16 00:12:08;;;;;;;8.63;8.53;;;3.90;99.90;;;;;;5076971;28;20486;-69
2023/10/16 00:14:36;;;;;;;8.80;8.70;;;3.80;99.90;;;;;;5083810;28;20544;-67
2023/10/16 00:17:08;;;;;;;8.93;8.83;;;3.70;99.90;;;;;;5080901;28;20658;-69
2023/10/16 00:19:37;;;;;;;9.20;9.00;;;3.70;99.90;;;;;;5068753;28;20447;-69
2023/10/16 00:22:10;;;;;;;9.20;9.00;;;3.60;99.90;;;;;;5068987;28;20447;-69
2023/10/16 00:24:38;;;;;;;9.60;9.40;;;3.50;99.90;;;;;;5078604;28;20847;-67
2023/10/16 00:27:05;;;;;;;9.30;9.10;;;3.40;99.90;;;;;;5070167;28;20492;-69
2023/10/16 00:29:35;;;;;;;9.67;9.47;;;3.30;99.90;;;;;;5067254;28;20469;-69
2023/10/16 00:32:07;;;;;;;9.83;9.63;;;3.10;99.90;;;;;;5085234;28;20446;-68
2023/10/16 00:34:37;;;;;;;9.97;9.77;;;3.10;99.90;;;;;;5079250;28;20457;-68
2023/10/16 00:37:05;;;;;;;10.50;10.30;;;3.10;99.90;;;;;;5073061;28;20483;-67
2023/10/16 00:39:32;;;;;;;11.50;11.20;;;3.10;99.90;;;;;;5080049;28;20462;-67
2023/10/16 00:42:00;;;;;;;10.70;10.50;;;3.20;99.90;;;;;;5074649;28;20517;-67
2023/10/16 00:44:33;;;;;;;10.40;10.20;;;3.40;99.90;;;;;;5075493;28;20455;-67
2023/10/16 00:47:04;;;;;;;10.30;10.10;;;3.50;99.90;;;;;;5082236;28;20466;-68
2023/10/16 00:49:31;;;;;;;10.27;10.07;;;3.50;99.90;;;;;;5067500;28;20495;-67
2023/10/16 00:52:03;;;;;;;10.03;9.83;;;3.50;99.90;;;;;;5074085;28;20509;-69
2023/10/16 00:54:38;;;;;;;10.20;10.00;;;3.50;99.90;;;;;;5072105;28;20451;-66
2023/10/16 00:57:07;;;;;;;10.63;10.43;;;3.50;99.90;;;;;;5084605;28;20523;-68
2023/10/16 00:59:35;;;;;;;10.20;10.00;;;3.50;99.90;;;;;;5078914;28;20461;-68
2023/10/16 01:02:07;;;;;;;10.70;10.50;;;3.50;99.90;;;;;;5074445;28;20447;-67
2023/10/16 01:04:36;;;;;;;10.80;10.60;;;3.50;99.90;;;;;;5081843;28;20929;-69
2023/10/16 01:07:05;;;;;;;10.67;10.47;;;3.50;99.90;;;;;;5072059;28;20459;-68
2023/10/16 01:09:35;;;;;;;10.27;10.07;;;3.50;99.90;;;;;;5076655;28;20831;-67
2023/10/16 01:12:06;;;;;;;10.20;10.00;;;3.50;99.90;;;;;;5068708;28;20949;-68
2023/10/16 01:14:35;;;;;;;9.90;9.70;;;3.60;99.90;;;;;;5073578;28;20458;-69
2023/10/16 01:17:08;;;;;;;9.50;9.30;;;3.60;99.90;;;;;;5079962;28;20486;-68
2023/10/16 01:19:36;;;;;;;8.97;8.87;;;3.50;99.90;;;;;;5079714;28;20447;-68
2023/10/16 01:22:03;;;;;;;8.90;8.80;;;3.40;99.90;;;;;;5079153;28;20446;-68
2023/10/16 01:24:32;;;;;;;10.73;10.53;;;3.30;99.90;;;;;;5078179;28;20515;-68
2023/10/16 01:27:06;;;;;;;10.20;10.00;;;3.30;99.90;;;;;;5070282;28;20457;-68
2023/10/16 01:29:35;;;;;;;11.23;10.93;;;3.30;99.90;;;;;;5086866;28;20442;-68
2023/10/16 01:32:04;;;;;;;12.00;11.70;;;3.30;99.90;;;;;;5090414;28;20953;-68
2023/10/16 01:34:32;;;;;;;12.37;12.07;;;3.30;99.90;;;;;;5083953;28;20466;-68
2023/10/16 01:37:04;;;;;;;12.07;11.77;;;3.30;99.90;;;;;;5072653;28;20827;-67
2023/10/16 01:39:53;;;;;;;12.37;12.07;;;3.30;99.90;;;;;;5073585;28;20454;-67
2023/10/16 01:42:21;;;;;;;12.30;12.00;;;3.30;99.90;;;;;;5082213;28;20519;-68
2023/10/16 01:44:51;;;;;;;12.73;12.43;;;3.40;99.90;;;;;;5090518;28;20855;-67
2023/10/16 01:47:18;;;;;;;12.80;12.50;;;3.40;99.90;;;;;;5079356;28;20844;-68
2023/10/16 01:49:47;;;;;;;11.93;11.63;;;3.40;99.90;;;;;;5076292;28;20653;-68
2023/10/16 01:52:15;;;;;;;12.90;12.60;;;3.40;99.90;;;;;;5081236;28;20457;-68
2023/10/16 01:54:46;;;;;;;12.53;12.23;;;3.50;99.90;;;;;;5076912;28;20490;-68
2023/10/16 01:57:13;;;;;;;12.90;12.60;;;3.40;99.90;;;;;;5082204;28;20484;-66
2023/10/16 01:59:43;;;;;;;13.30;12.90;;;3.40;99.90;;;;;;5080176;28;20561;-67
2023/10/16 02:02:12;;;;;;;11.77;11.47;;;3.50;99.90;;;;;;5089248;28;20465;-67
2023/10/16 02:04:39;;;;;;;11.90;11.60;;;3.50;99.90;;;;;;5080925;28;20499;-68
2023/10/16 02:07:08;;;;;;;11.53;11.23;;;3.50;99.90;;;;;;5086204;28;20462;-68
2023/10/16 02:09:36;;;;;;;11.10;10.90;;;3.50;99.90;;;;;;5086910;28;20501;-68
2023/10/16 02:12:10;;;;;;;11.73;11.43;;;3.40;99.90;;;;;;5074959;28;20486;-67
2023/10/16 02:14:39;;;;;;;12.03;11.73;;;3.30;99.90;;;;;;5071671;28;20467;-68
2023/10/16 02:17:14;;;;;;;12.17;11.87;;;3.10;99.90;;;;;;5083182;28;20827;-68
2023/10/16 02:19:44;;;;;;;12.43;12.13;;;3.00;99.90;;;;;;5082005;28;20537;-69
2023/10/16 02:22:12;;;;;;;13.30;12.90;;;3.00;99.90;;;;;;5070251;28;20951;-69
2023/10/16 02:24:40;;;;;;;14.00;13.60;;;3.00;99.90;;;;;;5075655;28;20537;-69
2023/10/16 02:27:12;;;;;;;13.70;13.30;;;3.00;99.90;;;;;;5083519;28;20462;-67
2023/10/16 02:29:45;;;;;;;13.40;13.00;;;3.20;99.90;;;;;;5076230;28;20512;-67
2023/10/16 02:32:13;;;;;;;13.03;12.67;;;3.20;99.90;;;;;;5088995;28;20470;-67
2023/10/16 02:34:41;;;;;;;13.13;12.73;;;3.20;99.90;;;;;;5073776;28;20964;-68
2023/10/16 02:37:10;;;;;;;13.30;12.90;;;3.20;99.90;;;;;;5078792;28;20494;-67
2023/10/16 02:39:37;;;;;;;13.23;12.83;;;3.20;99.90;;;;;;5076875;28;20502;-68
2023/10/16 02:42:08;;;;;;;13.23;12.83;;;3.30;99.90;;;;;;5075861;28;20474;-68
2023/10/16 02:44:42;;;;;;;11.93;11.63;;;3.40;99.90;;;;;;5081599;28;20456;-68
2023/10/16 02:47:12;;;;;;;12.33;12.03;;;3.40;99.90;;;;;;5076839;28;20470;-67
2023/10/16 02:49:47;;;;;;;12.60;12.30;;;3.50;99.90;;;;;;5078401;28;20463;-67
2023/10/16 02:52:14;;;;;;;12.13;11.83;;;3.50;99.90;;;;;;5071291;28;20872;-68
2023/10/16 02:54:41;;;;;;;12.50;12.20;;;3.50;99.90;;;;;;5073863;28;20955;-67
2023/10/16 02:57:10;;;;;;;12.47;12.17;;;3.50;99.90;;;;;;5075345;28;20592;-68
2023/10/16 02:59:39;;;;;;;12.50;12.20;;;3.50;99.90;;;;;;5074041;28;20458;-68
2023/10/16 03:02:13;;;;;;;12.60;12.30;;;3.50;99.90;;;;;;5076895;28;20457;-68
2023/10/16 03:04:42;;;;;;;12.40;12.10;;;3.50;99.90;;;;;;5080653;28;20483;-68
2023/10/16 03:07:09;;;;;;;12.17;11.87;;;3.50;99.90;;;;;;5084177;28;20548;-68
2023/10/16 03:09:38;;;;;;;12.07;11.77;;;3.50;99.90;;;;;;5088436;28;20454;-68
2023/10/16 03:12:08;;;;;;;12.50;12.20;;;3.50;99.90;;;;;;5071588;28;20447;-68
2023/10/16 03:14:45;;;;;;;12.23;11.93;;;3.50;99.90;;;;;;5079288;28;20462;-67
2023/10/16 03:17:22;;;;;;;12.27;11.97;;;3.40;99.90;;;;;;5074307;28;20491;-68
2023/10/16 03:19:49;;;;;;;11.83;11.53;;;3.40;99.90;;;;;;5084883;28;20515;-69
2023/10/16 03:22:17;;;;;;;11.83;11.53;;;3.30;99.90;;;;;;5080884;28;20560;-67
2023/10/16 03:24:46;;;;;;;12.10;11.80;;;3.20;99.90;;;;;;5083289;28;20521;-67
2023/10/16 03:27:27;;;;;;;12.37;12.07;;;3.10;99.90;;;;;;5071951;28;20551;-67
2023/10/16 03:29:56;;;;;;;12.80;12.50;;;3.00;99.90;;;;;;5082180;28;20478;-68
2023/10/16 03:32:24;;;;;;;13.40;13.00;;;2.90;99.90;;;;;;5077328;28;20462;-68
2023/10/16 03:34:52;;;;;;;13.10;12.70;;;3.00;99.90;;;;;;5068743;28;20466;-67
2023/10/16 03:37:19;;;;;;;13.80;13.40;;;3.10;99.90;;;;;;5081457;28;20502;-67
2023/10/16 03:39:48;;;;;;;14.07;13.67;;;3.10;99.90;;;;;;5077048;28;20900;-68
2023/10/16 03:42:17;;;;;;;13.93;13.53;;;3.10;99.90;;;;;;5083218;28;20850;-69
2023/10/16 03:44:45;;;;;;;14.17;13.77;;;3.10;99.90;;;;;;5079471;28;20463;-68
2023/10/16 03:47:14;;;;;;;14.40;14.00;;;3.10;99.90;;;;;;5066428;28;20494;-69
2023/10/16 03:49:46;;;;;;;14.03;13.63;;;3.20;99.90;;;;;;5078242;28;20756;-67
2023/10/16 03:52:13;;;;;;;13.70;13.30;;;3.20;99.90;;;;;;5081709;28;20466;-68
2023/10/16 03:54:41;;;;;;;13.37;12.97;;;3.20;99.90;;;;;;5073703;28;20459;-69
2023/10/16 03:57:11;;;;;;;14.20;13.80;;;3.20;99.90;;;;;;5080324;28;20556;-69
2023/10/16 03:59:38;;;;;;;13.70;13.30;;;3.20;99.90;;;;;;5069321;28;21009;-67
2023/10/16 04:02:07;;;;;;;14.30;13.90;;;3.20;99.90;;;;;;5079586;28;21130;-67
2023/10/16 04:04:35;;;;;;;13.60;13.20;;;3.20;99.90;;;;;;5079798;28;20462;-67
2023/10/16 04:07:05;;;;;;;13.67;13.27;;;3.20;99.90;;;;;;5075635;28;20511;-68
2023/10/16 04:09:38;;;;;;;14.13;13.73;;;3.20;99.90;;;;;;5083886;28;20454;-68
2023/10/16 04:12:06;;;;;;;14.10;13.70;;;3.20;99.90;;;;;;5081758;28;20966;-67
2023/10/16 04:14:55;;;;;;;14.10;13.70;;;3.10;99.90;;;;;;5082605;28;20556;-69
2023/10/16 04:17:24;;;;;;;14.53;14.03;;;3.10;99.90;;;;;;5071248;28;20551;-69
2023/10/16 04:19:53;;;;;;;14.70;14.20;;;3.10;99.90;;;;;;5080049;28;20805;-69
2023/10/16 04:22:24;;;;;;;14.60;14.10;;;3.10;99.90;;;;;;5075649;28;20817;-69
2023/10/16 04:24:55;;;;;;;14.27;13.77;;;3.10;99.90;;;;;;5078401;28;20466;-69
2023/10/16 04:27:33;;;;;;;14.60;14.10;;;3.10;99.90;;;;;;5082126;28;20843;-69
2023/10/16 04:33:13;;;;;;;15.20;14.70;;;3.10;99.90;;;;;;5074302;28;21020;-68
2023/10/16 04:38:31;;;;;;;14.43;13.93;;;3.10;99.90;;;;;;5058092;28;21106;-68
2023/10/16 04:43:51;;;;;;;15.00;14.50;;;3.10;99.90;;;;;;5088172;28;20469;-69
2023/10/16 04:46:20;;;;;;;15.73;15.13;;;3.00;99.90;;;;;;5074464;28;20864;-66
2023/10/16 04:48:51;;;;;;;15.60;15.00;;;3.00;99.90;;;;;;5077235;28;20481;-67
2023/10/16 04:51:22;;;;;;;15.63;15.03;;;3.00;99.90;;;;;;5073693;28;20458;-68
2023/10/16 04:54:13;;;;;;;15.70;15.10;;;3.10;99.90;;;;;;5078765;28;20473;-69
2023/10/16 04:57:07;;;;;;;15.90;15.30;;;3.10;99.90;;;;;;5070460;28;20517;-69
2023/10/16 04:59:58;;;;;;;15.70;15.10;;;3.10;99.90;;;;;;5075939;28;20454;-67
2023/10/16 05:02:33;;;;;;;14.63;14.13;;;3.10;99.90;;;;;;5065996;28;20455;-69
2023/10/16 05:05:32;;;;;;;15.07;14.57;;;3.10;99.90;;;;;;5078960;28;20504;-67
2023/10/16 05:08:30;;;;;;;15.17;14.67;;;3.00;99.90;;;;;;5071352;28;20477;-68
2023/10/16 05:13:55;;;;;;;15.20;14.70;;;2.90;99.90;;;;;;5080088;28;20863;-69
2023/10/16 05:16:35;;;;;;;14.87;14.37;;;2.80;99.90;;;;;;5066855;28;20585;-67
2023/10/16 05:19:03;;;;;;;15.50;14.90;;;2.60;99.90;;;;;;5073182;28;20866;-68
2023/10/16 06:16:31;;;;;;;15.10;14.60;;;2.50;99.90;;;;;;5075376;28;20493;-69
2023/10/16 06:18:59;;;;;;;15.23;14.73;;;2.50;99.90;;;;;;5075080;28;20529;-67
2023/10/16 06:21:26;;;;;;;15.97;15.37;;;2.50;99.90;;;;;;5081372;28;20465;-69
2023/10/16 06:23:53;;;;;;;14.93;14.43;;;2.70;99.90;;;;;;5075897;28;21024;-67
2023/10/16 06:26:26;;;;;;;15.00;14.50;;;2.80;99.90;;;;;;5070181;28;20494;-67
2023/10/16 06:28:53;;;;;;;14.57;14.07;;;3.00;99.90;;;;;;5072771;28;20462;-68
2023/10/16 06:31:24;;;;;;;14.77;14.27;;;3.10;99.90;;;;;;5081915;28;20467;-67
2023/10/16 06:33:54;;;;;;;14.57;14.07;;;3.10;99.90;;;;;;5062335;28;20836;-67
2023/10/16 06:36:23;;;;;;;14.17;13.77;;;3.20;99.90;;;;;;5072937;28;20491;-68
2023/10/16 06:38:51;;;;;;;14.70;14.20;;;3.20;99.90;;;;;;5071634;28;20463;-67
2023/10/16 06:41:19;;;;;;;16.50;15.90;;;3.30;99.90;;;;;;5067101;28;20876;-67
2023/10/16 06:43:48;;;;;;;15.23;14.73;;;3.40;99.90;;;;;;5070159;28;20490;-68
2023/10/16 06:46:22;;;;;;;15.27;14.77;;;3.40;99.90;;;;;;5075426;28;20519;-67
2023/10/16 06:48:50;;;;;;;14.30;13.87;;;3.50;99.90;;;;;;5075012;28;20449;-67
2023/10/16 06:51:25;;;;;;;15.53;15.03;;;3.70;99.90;;;;;;5077724;28;20527;-68
2023/10/16 06:53:54;;;;;;;13.47;13.07;;;3.80;99.90;;;;;;5070773;28;20470;-69
2023/10/16 06:56:31;;;;;;;13.70;13.30;;;3.80;99.90;;;;;;5072749;28;20504;-68
2023/10/16 06:58:58;;;;;;;13.53;13.13;;;3.90;99.90;;;;;;5069214;28;20459;-69
2023/10/16 07:01:26;;;;;;;13.43;13.03;;;4.00;99.90;;;;;;5077226;28;20461;-68
2023/10/16 07:03:54;;;;;;;13.43;13.03;;;4.10;99.90;;;;;;5069832;28;20463;-69
2023/10/16 07:06:24;;;;;;;13.37;12.97;;;4.20;99.90;;;;;;5082154;28;21026;-68
2023/10/16 07:08:52;;;;;;;13.70;13.30;;;4.30;99.90;;;;;;5072442;28;20818;-67
2023/10/16 07:11:21;;;;;;;13.60;13.20;;;4.40;99.90;;;;;;5073771;28;20489;-67
2023/10/16 07:13:48;;;;;;;13.10;12.70;;;4.50;99.90;;;;;;5076067;28;20820;-69
2023/10/16 07:16:16;;;;;;;13.70;13.30;;;4.60;99.90;;;;;;5065273;28;20462;-69
2023/10/16 07:18:43;;;;;;;12.40;12.10;;;4.70;99.90;;;;;;5070168;28;20466;-67
2023/10/16 07:21:17;;;;;;;13.37;12.97;;;4.80;99.90;;;;;;5074626;28;20559;-68
2023/10/16 07:23:46;;;;;;;13.03;12.63;;;4.90;99.90;;;;;;5078462;28;20449;-68
2023/10/16 07:26:17;;;;;;;13.27;12.87;;;5.00;99.90;;;;;;5072731;28;20485;-69
2023/10/16 07:28:48;;;;;;;13.23;12.83;;;5.20;99.90;;;;;;5067909;28;20464;-69
2023/10/16 07:31:16;;;;;;;13.57;13.17;;;5.30;99.90;;;;;;5068797;28;20556;-67
2023/10/16 07:33:45;;;;;;;13.90;13.50;;;5.30;99.90;;;;;;5078881;28;20497;-68
2023/10/16 07:36:12;;;;;;;14.70;14.20;;;5.40;99.90;;;;;;5085094;28;20474;-69
2023/10/16 07:38:39;;;;;;;13.80;13.40;;;5.60;99.90;;;;;;5075461;28;20682;-69
2023/10/16 07:41:12;;;;;;;13.40;13.00;;;5.60;99.90;;;;;;5079598;28;20956;-68
2023/10/16 07:43:39;;;;;;;14.10;13.70;;;5.70;99.90;;;;;;5072529;28;20470;-68
2023/10/16 07:46:28;;;;;;;14.47;13.97;;;5.80;99.90;;;;;;5078655;28;21113;-69
2023/10/16 07:48:56;;;;;;;13.37;12.97;;;5.90;99.90;;;;;;5075845;28;20753;-69
2023/10/16 07:51:25;;;;;;;12.33;12.03;;;5.90;99.90;;;;;;5079948;28;20837;-68
2023/10/16 07:53:56;;;;;;;13.57;13.17;;;6.00;99.90;;;;;;5075619;28;20950;-67
2023/10/16 07:56:28;;;;;;;14.77;14.27;;;6.00;99.90;;;;;;5066448;28;20471;-68
2023/10/16 07:58:56;;;;;;;14.60;14.10;;;6.10;99.90;;;;;;5073575;28;20462;-70
2023/10/16 08:04:19;;;;;;;13.63;13.23;;;6.10;99.90;;;;;;5072217;28;20474;-70
2023/10/16 08:06:47;;;;;;;12.73;12.33;;;6.20;99.90;;;;;;5085972;28;20571;-68
2023/10/16 08:09:48;;;;;;;12.67;12.30;;;6.10;99.90;;;;;;5077982;28;20532;-69
2023/10/16 08:12:18;;;;;;;13.30;12.90;;;6.20;99.90;;;;;;5070861;28;20464;-69
2023/10/16 08:14:46;;;;;;;14.40;13.90;;;6.30;99.90;;;;;;5073738;28;20470;-69
2023/10/16 08:17:15;;;;;;;13.17;12.77;;;6.50;99.90;;;;;;5071848;28;20485;-70
2023/10/16 08:19:42;;;;;;;13.50;13.10;;;6.40;99.90;;;;;;5073007;28;20466;-69
2023/10/16 08:22:09;;;;;;;13.33;12.93;;;6.50;99.90;;;;;;5070457;28;20458;-68
2023/10/16 08:24:43;;;;;;;13.03;12.63;;;6.60;99.90;;;;;;5083270;28;20489;-70
2023/10/16 08:27:19;;;;;;;13.50;13.10;;;6.70;99.90;;;;;;5082696;28;20491;-69
2023/10/16 08:29:54;;;;;;;13.20;12.80;;;6.90;99.90;;;;;;5071763;28;20477;-69
2023/10/16 08:35:26;;;;;;;13.17;12.77;;;7.20;99.90;;;;;;5068860;27;20587;-68
2023/10/16 08:37:57;;;;;;;13.37;12.97;;;7.50;99.90;;;;;;5055295;28;20455;-68
2023/10/16 08:40:32;;;;;;;13.40;13.00;;;7.50;99.90;;;;;;5051980;28;20552;-69
2023/10/16 08:43:01;;;;;;;14.07;13.57;;;7.60;99.90;;;;;;5055357;28;20489;-67
2023/10/16 08:45:29;;;;;;;14.30;13.80;;;7.50;99.90;;;;;;5058990;28;20455;-68
2023/10/16 08:47:58;;;;;;;14.93;14.43;;;7.70;99.90;;;;;;5039118;28;20835;-69
2023/10/16 08:50:40;;;;;;;14.87;14.37;;;7.90;99.90;;;;;;5037150;28;20799;-69
2023/10/16 08:53:09;;;;;;;14.50;14.00;;;7.90;99.90;;;;;;5033925;28;20468;-67
2023/10/16 08:55:37;;;;;;;14.50;14.00;;;8.00;99.90;;;;;;5041491;28;20459;-70
2023/10/16 08:58:05;;;;;;;14.73;14.23;;;8.00;99.90;;;;;;5031938;28;20862;-68
2023/10/16 09:00:32;;;;;;;14.63;14.13;;;8.10;99.90;;;;;;5042204;28;20560;-69
2023/10/16 09:03:04;;;;;;;15.70;15.10;;;8.10;99.90;;;;;;5044464;28;20498;-68
2023/10/16 09:05:34;;;;;;;16.55;15.85;;;8.20;99.90;;;;;;5028035;28;20287;-69
2023/10/16 09:08:01;;;;;;;15.60;15.00;;;8.30;99.90;;;;;;5030141;28;20201;-68
2023/10/16 09:10:30;;;;;;;16.30;15.60;;;8.30;99.90;;;;;;5035731;28;21113;-69
2023/10/16 09:13:13;;;;;;;16.83;16.13;;;8.40;99.90;;;;;;5041733;28;20482;-69
2023/10/16 09:15:45;;;;;;;16.65;15.95;;;8.40;99.90;;;;;;5037627;28;20511;-69
2023/10/16 09:18:14;;;;;;;17.10;16.30;;;8.40;99.90;;;;;;5031830;28;20855;-69
2023/10/16 09:20:43;;;;;;;17.37;16.57;;;8.50;99.90;;;;;;5042538;28;20202;-67
2023/10/16 09:23:14;;;;;;;16.30;15.60;;;8.60;99.90;;;;;;5043099;28;20466;-67
2023/10/16 09:25:45;;;;;;;17.23;16.50;;;8.70;99.90;;;;;;5036109;28;20886;-69
2023/10/16 09:28:19;;;;;;;16.83;16.13;;;8.80;99.90;;;;;;5047308;28;20550;-68
2023/10/16 09:30:46;;;;;;;16.43;15.73;;;8.90;99.90;;;;;;5029251;28;20985;-68
2023/10/16 09:33:15;;;;;;;16.37;15.67;;;9.10;99.90;;;;;;5028834;28;20550;-69
2023/10/16 09:35:46;;;;;;;16.33;15.63;;;9.10;99.90;;;;;;5042634;28;20537;-69
2023/10/16 09:38:19;;;;;;;16.77;16.03;;;9.10;99.90;;;;;;5045943;28;20573;-69
2023/10/16 09:40:58;;;;;;;16.10;15.40;;;9.20;99.90;;;;;;5031602;28;20460;-68
2023/10/16 09:43:26;;;;;;;16.07;15.37;;;9.40;99.90;;;;;;5034305;28;20272;-68
2023/10/16 09:48:37;;;;;;;16.30;15.60;;;9.60;99.90;;;;;;5023624;28;20990;-68
2023/10/16 09:51:09;;;;;;;16.20;15.50;;;9.60;99.90;;;;;;5027717;28;20460;-70
2023/10/16 09:53:36;;;;;;;15.83;15.13;;;9.50;99.90;;;;;;5019681;28;20468;-69
2023/10/16 09:56:09;;;;;;;16.63;15.93;;;9.70;99.90;;;;;;5026887;28;20820;-68
2023/10/16 09:58:44;;;;;;;15.53;14.93;;;10.00;99.90;;;;;;5021426;28;20473;-69
2023/10/16 10:01:20;;;;;;;16.47;15.77;;;10.40;99.90;;;;;;5024116;28;20541;-69
2023/10/16 10:03:48;;;;;;;16.88;16.17;;;10.50;99.90;;;;;;5024993;28;20473;-69
2023/10/16 10:06:21;;;;;;;16.63;15.93;;;11.20;99.90;;;;;;5035763;28;20724;-70
2023/10/16 10:09:22;;;;;;;15.97;15.37;;;11.70;99.90;;;;;;5015776;28;20624;-70
2023/10/16 10:12:03;;;;;;;16.10;15.50;;;12.40;99.90;;;;;;5021375;28;20568;-68
2023/10/16 10:14:39;;;;;;;16.33;15.73;;;13.00;99.90;;;;;;5031050;28;21076;-69
2023/10/16 10:17:09;;;;;;;16.63;16.00;;;13.30;99.90;;;;;;5022722;28;20479;-69
2023/10/16 10:19:40;;;;;;;16.03;15.43;;;14.10;99.90;;;;;;5035331;28;20459;-68
2023/10/16 10:22:17;;;;;;;16.70;16.00;;;14.00;99.90;;;;;;5035783;28;20893;-70
2023/10/16 10:24:51;;;;;;;16.40;15.80;;;14.30;99.90;;;;;;5029845;28;20266;-69
2023/10/16 10:27:17;;;;;;;16.60;16.00;;;14.70;99.90;;;;;;5018693;28;20472;-69
2023/10/16 10:29:48;;;;;;;17.17;16.47;;;14.90;99.90;;;;;;5031713;28;20462;-68
2023/10/16 10:32:16;;;;;;;16.60;16.00;;;15.10;99.90;;;;;;5024219;28;20982;-69
2023/10/16 10:34:45;;;;;;;16.47;15.87;;;15.40;99.90;;;;;;5011259;28;20244;-69
2023/10/16 10:37:48;;;;;;;16.40;15.80;;;15.40;99.90;;;;;;5030088;28;20546;-68
2023/10/16 10:40:21;;;;;;;16.00;15.40;;;15.60;99.90;;;;;;5036852;28;20457;-69
2023/10/16 10:42:53;;;;;;;15.85;15.25;;;15.90;99.90;;;;;;5018850;28;20464;-68
2023/10/16 10:45:33;;;;;;;15.20;14.70;;;16.20;99.90;;;;;;5027207;28;20201;-70
2023/10/16 10:48:06;;;;;;;15.90;15.30;;;16.00;99.90;;;;;;5029218;28;20572;-69
2023/10/16 10:50:38;;;;;;;14.90;14.40;;;15.90;99.90;;;;;;5017786;28;20563;-70
2023/10/16 10:53:16;;;;;;;14.90;14.40;;;16.10;99.90;;;;;;5028832;28;20953;-69
2023/10/16 10:55:59;;;;;;;15.47;14.97;;;16.50;99.90;;;;;;5032170;28;20480;-69
2023/10/16 10:58:31;;;;;;;15.13;14.63;;;16.40;99.90;;;;;;5022418;28;20477;-70
2023/10/16 11:01:15;;;;;;;14.90;14.40;;;16.70;99.90;;;;;;5028312;28;20492;-70
2023/10/16 11:03:45;;;;;;;14.70;14.20;;;16.60;99.90;;;;;;5018477;28;20524;-69
2023/10/16 11:06:19;;;;;;;15.10;14.60;;;16.50;99.90;;;;;;5018889;28;20702;-69
2023/10/16 11:08:53;;;;;;;14.70;14.20;;;16.20;99.90;;;;;;5027575;28;20526;-68
2023/10/16 11:11:20;;;;;;;14.88;14.38;;;16.40;99.90;;;;;;5032051;28;20460;-69
2023/10/16 11:13:47;;;;;;;14.30;13.80;;;16.90;99.90;;;;;;5024378;28;20202;-70
2023/10/16 11:16:16;;;;;;;14.60;14.10;;;17.10;99.90;;;;;;5018438;28;20479;-70
2023/10/16 11:18:58;;;;;;;15.30;14.77;;;17.40;99.90;;;;;;5027376;28;20492;-69
2023/10/16 11:21:26;;;;;;;15.00;14.50;;;17.70;99.90;;;;;;5025261;28;20457;-70
2023/10/16 11:23:55;;;;;;;15.10;14.60;;;17.80;99.90;;;;;;5026272;28;20543;-70
2023/10/16 11:26:26;;;;;;;14.43;13.93;;;17.80;99.90;;;;;;5018286;28;20202;-70
2023/10/16 11:28:54;;;;;;;14.75;14.25;;;18.00;99.90;;;;;;5011399;28;20570;-71
2023/10/16 11:31:24;;;;;;;14.87;14.37;;;17.90;99.90;;;;;;5022247;28;20581;-70
2023/10/16 11:34:11;;;;;;;14.50;14.00;;;17.80;99.90;;;;;;5019156;28;20481;-69
2023/10/16 11:36:39;;;;;;;15.47;14.87;;;18.20;99.90;;;;;;5022655;28;20524;-71
2023/10/16 11:39:10;;;;;;;15.50;14.90;;;18.70;99.90;;;;;;5015034;28;20883;-70
2023/10/16 11:41:37;;;;;;;15.50;14.90;;;18.90;99.90;;;;;;5013500;28;20468;-70
2023/10/16 11:44:13;;;;;;;15.00;14.50;;;18.90;99.90;;;;;;5017482;28;20454;-69
2023/10/16 11:46:46;;;;;;;15.10;14.60;;;18.70;99.90;;;;;;5022844;28;20488;-69
2023/10/16 11:49:29;;;;;;;14.90;14.40;;;19.20;99.90;;;;;;5015272;28;20468;-70
2023/10/16 11:51:59;;;;;;;15.20;14.70;;;19.00;99.90;;;;;;5022799;28;20472;-69
2023/10/16 11:54:28;;;;;;;14.87;14.37;;;18.90;99.90;;;;;;5015183;28;20583;-70
2023/10/16 11:56:59;;;;;;;15.03;14.53;;;18.60;99.90;;;;;;5011793;28;20482;-70
2023/10/16 11:59:26;;;;;;;14.70;14.20;;;18.70;99.90;;;;;;5033597;28;20459;-70
2023/10/16 12:01:59;;;;;;;15.20;14.70;;;18.90;99.90;;;;;;5020479;28;20472;-71
2023/10/16 12:04:26;;;;;;;15.10;14.60;;;19.00;99.90;;;;;;5020117;28;20467;-71
2023/10/16 12:06:54;;;;;;;15.10;14.60;;;19.10;99.90;;;;;;5014886;28;20457;-71
2023/10/16 12:09:21;;;;;;;15.10;14.60;;;19.20;99.90;;;;;;5029847;28;20479;-69
2023/10/16 12:11:52;;;;;;;15.60;15.00;;;19.00;99.90;;;;;;5029014;28;20889;-70
2023/10/16 12:14:19;;;;;;;15.00;14.50;;;18.80;99.90;;;;;;5011963;28;20475;-70
2023/10/16 12:16:47;;;;;;;15.90;15.30;;;18.40;99.90;;;;;;5027723;28;20636;-72
2023/10/16 12:19:15;;;;;;;15.30;14.80;;;18.40;99.90;;;;;;5026225;28;20459;-69
2023/10/16 12:21:42;;;;;;;15.50;15.00;;;18.50;99.90;;;;;;5016563;28;20551;-72
2023/10/16 12:24:11;;;;;;;14.93;14.43;;;18.60;99.90;;;;;;5013876;28;20466;-70
2023/10/16 12:26:40;;;;;;;15.65;15.07;;;18.60;99.90;;;;;;5019865;28;20468;-72
2023/10/16 12:29:10;;;;;;;15.80;15.20;;;18.50;99.90;;;;;;5018516;28;20670;-69
2023/10/16 12:31:39;;;;;;;15.70;15.10;;;18.00;99.90;;;;;;5019649;28;20900;-71
2023/10/16 12:34:10;;;;;;;15.80;15.20;;;18.40;99.90;;;;;;5026366;28;20588;-71
2023/10/16 12:36:38;;;;;;;15.30;14.77;;;18.60;99.90;;;;;;5016040;28;20476;-70
2023/10/16 12:39:13;;;;;;;15.73;15.13;;;18.60;99.90;;;;;;5008258;28;20471;-71
2023/10/16 12:41:42;;;;;;;15.40;14.90;;;18.40;99.90;;;;;;5032358;28;20456;-69
2023/10/16 12:44:11;;;;;;;15.20;14.70;;;18.50;99.90;;;;;;5023652;28;20569;-70
2023/10/16 12:46:38;;;;;;;15.30;14.80;;;18.10;99.90;;;;;;5028460;28;20915;-70
2023/10/16 12:49:07;;;;;;;15.37;14.77;;;18.30;99.90;;;;;;5029661;28;20466;-69
2023/10/16 12:51:34;;;;;;;15.53;14.93;;;18.30;99.90;;;;;;5026471;28;20457;-69
2023/10/16 12:54:03;;;;;;;15.13;14.63;;;17.80;99.90;;;;;;5023602;28;21329;-70
2023/10/16 12:56:31;;;;;;;14.50;14.00;;;18.10;99.90;;;;;;5010535;28;21004;-69
2023/10/16 12:58:58;;;;;;;14.90;14.40;;;18.30;99.90;;;;;;5032236;28;20299;-70
2023/10/16 13:01:26;;;;;;;15.00;14.50;;;18.10;99.90;;;;;;5022151;28;20858;-71
2023/10/16 13:03:59;;;;;;;15.20;14.70;;;17.70;99.90;;;;;;5030685;28;20460;-71
2023/10/16 13:06:26;;;;;;;15.17;14.67;;;17.60;99.90;;;;;;5016755;28;20207;-71
2023/10/16 13:08:54;;;;;;;15.20;14.70;;;17.70;99.90;;;;;;5024852;28;20456;-69
2023/10/16 13:11:21;;;;;;;15.17;14.67;;;17.70;99.90;;;;;;5029847;28;20449;-68
2023/10/16 13:13:48;;;;;;;15.00;14.50;;;17.30;99.90;;;;;;5016561;28;20458;-68
2023/10/16 13:16:22;;;;;;;15.00;14.50;;;17.20;99.90;;;;;;5019875;28;20218;-69
2023/10/16 13:18:57;;;;;;;15.00;14.50;;;17.30;99.90;;;;;;5016747;28;20473;-71
2023/10/16 13:21:32;;;;;;;15.00;14.50;;;17.00;99.90;;;;;;5013275;28;20465;-70
2023/10/16 13:24:04;;;;;;;14.83;14.33;;;17.20;99.90;;;;;;5029042;28;20553;-70
2023/10/16 13:26:31;;;;;;;15.00;14.50;;;17.30;99.90;;;;;;5034484;28;20869;-69
2023/10/16 13:28:58;;;;;;;15.27;14.77;;;17.30;99.90;;;;;;5015989;28;20908;-70
2023/10/16 13:31:24;;;;;;;15.00;14.50;;;17.00;99.90;;;;;;5025018;28;20956;-71
2023/10/16 13:33:53;;;;;;;15.30;14.80;;;16.70;99.90;;;;;;5025185;28;20248;-70
2023/10/16 13:36:20;;;;;;;14.90;14.40;;;16.80;99.90;;;;;;5031242;28;20519;-71
2023/10/16 13:38:51;;;;;;;15.43;14.93;;;17.00;99.90;;;;;;5026667;28;20528;-71
2023/10/16 13:41:18;;;;;;;15.97;15.37;;;16.80;99.90;;;;;;5014260;28;20465;-70
2023/10/16 13:43:46;;;;;;;16.00;15.40;;;17.00;99.90;;;;;;5018836;28;20453;-69
2023/10/16 13:46:14;;;;;;;15.40;14.90;;;16.80;99.90;;;;;;5022231;28;20721;-71
2023/10/16 13:48:45;;;;;;;15.30;14.80;;;16.70;99.90;;;;;;5039078;28;20452;-70
2023/10/16 13:51:16;;;;;;;15.55;15.05;;;16.60;99.90;;;;;;5018489;28;20467;-71
2023/10/16 13:53:43;;;;;;;15.70;15.20;;;16.60;99.90;;;;;;5015435;28;20202;-69
2023/10/16 13:56:15;;;;;;;15.80;15.30;;;16.90;99.90;;;;;;5019687;28;20633;-71
2023/10/16 13:58:43;;;;;;;15.50;15.00;;;16.60;99.90;;;;;;5020048;28;20460;-72
2023/10/16 14:01:11;;;;;;;16.10;15.50;;;16.90;99.90;;;;;;5029220;28;20458;-71
2023/10/16 14:03:40;;;;;;;16.38;15.77;;;16.90;99.90;;;;;;5027749;28;20519;-71
2023/10/16 14:06:12;;;;;;;15.85;15.30;;;17.30;99.90;;;;;;5017494;28;20524;-72
2023/10/16 14:08:41;;;;;;;15.30;14.80;;;17.20;99.90;;;;;;5034590;28;20249;-72
2023/10/16 14:11:11;;;;;;;15.40;14.90;;;17.10;99.90;;;;;;5034942;28;20959;-71